sensor_id;sensor_type;location;lat;lon;timestamp;pressure;altitude;pressure_sealevel;temperature;humidity
51876;BME280;34054;52.100;5.116;2022-09-02T00:00:06;101594.19;;;19.97;38.08
51876;BME280;34054;52.100;5.116;2022-09-02T00:00:41;101593.38;;;19.96;38.43
51876;BME280;34054;52.100;5.116;2022-09-02T00:01:15;101593.16;;;19.92;38.42
51876;BME280;34054;52.100;5.116;2022-09-02T00:01:49;101594.44;;;20.00;38.33
51876;BME280;34054;52.100;5.116;2022-09-02T00:02:20;101598.00;;;20.01;38.57
51876;BME280;34054;52.100;5.116;2022-09-02T00:02:53;101595.75;;;20.03;38.51
51876;BME280;34054;52.100;5.116;2022-09-02T00:03:25;101594.19;;;19.97;38.15
51876;BME280;34054;52.100;5.116;2022-09-02T00:03:59;101593.38;;;19.96;38.15
51876;BME280;34054;52.100;5.116;2022-09-02T00:04:32;101599.22;;;19.95;38.70
51876;BME280;34054;52.100;5.116;2022-09-02T00:05:05;101594.81;;;19.93;38.34
51876;BME280;34054;52.100;5.116;2022-09-02T00:05:37;101589.09;;;19.90;38.69
51876;BME280;34054;52.100;5.116;2022-09-02T00:06:09;101600.25;;;19.80;38.35
51876;BME280;34054;52.100;5.116;2022-09-02T00:06:43;101602.69;;;19.81;38.53
51876;BME280;34054;52.100;5.116;2022-09-02T00:07:16;101602.16;;;19.79;38.60
51876;BME280;34054;52.100;5.116;2022-09-02T00:07:48;101593.41;;;19.77;38.47
51876;BME280;34054;52.100;5.116;2022-09-02T00:08:19;101594.84;;;19.74;38.60
51876;BME280;34054;52.100;5.116;2022-09-02T00:08:52;101583.75;;;19.60;38.63
51876;BME280;34054;52.100;5.116;2022-09-02T00:09:24;101597.22;;;19.62;38.95
51876;BME280;34054;52.100;5.116;2022-09-02T00:09:56;101606.28;;;19.62;38.82
51876;BME280;34054;52.100;5.116;2022-09-02T00:10:31;101598.97;;;19.72;38.98
51876;BME280;34054;52.100;5.116;2022-09-02T00:11:03;101598.97;;;19.72;38.76
51876;BME280;34054;52.100;5.116;2022-09-02T00:11:38;101579.34;;;19.59;38.80
51876;BME280;34054;52.100;5.116;2022-09-02T00:12:11;101595.03;;;19.78;38.63
51876;BME280;34054;52.100;5.116;2022-09-02T00:12:43;101591.66;;;19.81;38.35
51876;BME280;34054;52.100;5.116;2022-09-02T00:13:16;101596.38;;;19.81;38.39
51876;BME280;34054;52.100;5.116;2022-09-02T00:13:50;101595.25;;;19.82;38.72
51876;BME280;34054;52.100;5.116;2022-09-02T00:14:31;101595.31;;;19.76;38.62
51876;BME280;34054;52.100;5.116;2022-09-02T00:15:05;101589.31;;;19.74;38.73
51876;BME280;34054;52.100;5.116;2022-09-02T00:15:37;101602.25;;;19.74;38.83
51876;BME280;34054;52.100;5.116;2022-09-02T00:16:10;101598.59;;;19.78;38.78
51876;BME280;34054;52.100;5.116;2022-09-02T00:16:42;101589.44;;;19.83;38.85
51876;BME280;34054;52.100;5.116;2022-09-02T00:17:20;101593.56;;;19.86;38.81
51876;BME280;34054;52.100;5.116;2022-09-02T00:17:53;101594.88;;;19.88;38.80
51876;BME280;34054;52.100;5.116;2022-09-02T00:18:25;101589.88;;;19.90;38.55
51876;BME280;34054;52.100;5.116;2022-09-02T00:18:57;101589.38;;;19.88;38.44
51876;BME280;34054;52.100;5.116;2022-09-02T00:19:33;101591.63;;;19.86;38.70
51876;BME280;34054;52.100;5.116;2022-09-02T00:20:05;101587.47;;;19.84;38.58
51876;BME280;34054;52.100;5.116;2022-09-02T00:20:39;101587.22;;;19.85;38.81
51876;BME280;34054;52.100;5.116;2022-09-02T00:21:13;101584.72;;;19.84;38.66
51876;BME280;34054;52.100;5.116;2022-09-02T00:21:46;101579.00;;;19.80;38.45
51876;BME280;34054;52.100;5.116;2022-09-02T00:22:19;101587.28;;;19.80;38.60
51876;BME280;34054;52.100;5.116;2022-09-02T00:22:51;101584.72;;;19.84;38.95
51876;BME280;34054;52.100;5.116;2022-09-02T00:23:23;101584.47;;;19.85;38.62
51876;BME280;34054;52.100;5.116;2022-09-02T00:23:55;101596.75;;;19.74;38.68
51876;BME280;34054;52.100;5.116;2022-09-02T00:24:28;101594.78;;;19.60;39.00
51876;BME280;34054;52.100;5.116;2022-09-02T00:25:00;101595.88;;;19.59;38.96
51876;BME280;34054;52.100;5.116;2022-09-02T00:25:31;101591.50;;;19.58;38.90
51876;BME280;34054;52.100;5.116;2022-09-02T00:26:08;101576.84;;;19.44;38.95
51876;BME280;34054;52.100;5.116;2022-09-02T00:26:40;101590.44;;;19.54;39.06
51876;BME280;34054;52.100;5.116;2022-09-02T00:27:12;101592.91;;;19.56;39.16
51876;BME280;34054;52.100;5.116;2022-09-02T00:27:44;101591.19;;;19.60;39.57
51876;BME280;34054;52.100;5.116;2022-09-02T00:28:16;101591.66;;;19.48;39.20
51876;BME280;34054;52.100;5.116;2022-09-02T00:28:48;101591.66;;;19.48;39.48
51876;BME280;34054;52.100;5.116;2022-09-02T00:29:20;101590.69;;;19.39;39.25
51876;BME280;34054;52.100;5.116;2022-09-02T00:29:53;101588.16;;;19.42;39.39
51876;BME280;34054;52.100;5.116;2022-09-02T00:30:25;101584.59;;;19.42;39.57
51876;BME280;34054;52.100;5.116;2022-09-02T00:30:57;101588.69;;;19.44;39.71
51876;BME280;34054;52.100;5.116;2022-09-02T00:31:29;101580.09;;;19.46;39.62
51876;BME280;34054;52.100;5.116;2022-09-02T00:32:00;101590.75;;;19.53;39.50
51876;BME280;34054;52.100;5.116;2022-09-02T00:32:33;101583.81;;;19.55;39.51
51876;BME280;34054;52.100;5.116;2022-09-02T00:33:05;101584.66;;;19.56;39.26
51876;BME280;34054;52.100;5.116;2022-09-02T00:33:38;101586.28;;;19.57;39.34
51876;BME280;34054;52.100;5.116;2022-09-02T00:34:11;101583.81;;;19.55;39.13
51876;BME280;34054;52.100;5.116;2022-09-02T00:34:43;101579.94;;;19.56;39.34
51876;BME280;34054;52.100;5.116;2022-09-02T00:35:14;101576.66;;;19.54;39.39
51876;BME280;34054;52.100;5.116;2022-09-02T00:35:47;101570.25;;;19.59;39.18
51876;BME280;34054;52.100;5.116;2022-09-02T00:36:19;101584.25;;;19.62;39.47
51876;BME280;34054;52.100;5.116;2022-09-02T00:36:51;101551.53;;;19.42;39.53
51876;BME280;34054;52.100;5.116;2022-09-02T00:37:25;101586.19;;;19.62;39.58
51876;BME280;34054;52.100;5.116;2022-09-02T00:37:57;101569.31;;;19.50;39.26
51876;BME280;34054;52.100;5.116;2022-09-02T00:38:30;101582.19;;;19.54;39.17
51876;BME280;34054;52.100;5.116;2022-09-02T00:39:06;101557.34;;;19.40;39.40
51876;BME280;34054;52.100;5.116;2022-09-02T00:39:39;101574.00;;;19.49;39.67
51876;BME280;34054;52.100;5.116;2022-09-02T00:40:11;101582.63;;;19.61;39.43
51876;BME280;34054;52.100;5.116;2022-09-02T00:40:47;101578.47;;;19.64;39.74
51876;BME280;34054;52.100;5.116;2022-09-02T00:41:23;101579.94;;;19.56;39.46
51876;BME280;34054;52.100;5.116;2022-09-02T00:41:56;101579.34;;;19.59;39.26
51876;BME280;34054;52.100;5.116;2022-09-02T00:42:29;101589.09;;;19.52;39.06
51876;BME280;34054;52.100;5.116;2022-09-02T00:43:04;101579.50;;;19.49;39.45
51876;BME280;34054;52.100;5.116;2022-09-02T00:43:41;101579.22;;;19.51;39.47
51876;BME280;34054;52.100;5.116;2022-09-02T00:44:18;101575.72;;;19.45;39.49
51876;BME280;34054;52.100;5.116;2022-09-02T00:44:50;101581.38;;;19.54;39.44
51876;BME280;34054;52.100;5.116;2022-09-02T00:45:25;101582.69;;;19.56;39.43
51876;BME280;34054;52.100;5.116;2022-09-02T00:45:56;101581.81;;;19.61;39.30
51876;BME280;34054;52.100;5.116;2022-09-02T00:46:30;101584.56;;;19.61;39.38
51876;BME280;34054;52.100;5.116;2022-09-02T00:47:03;101588.16;;;19.61;39.35
51876;BME280;34054;52.100;5.116;2022-09-02T00:47:35;101569.34;;;19.64;39.34
51876;BME280;34054;52.100;5.116;2022-09-02T00:48:06;101578.53;;;19.59;39.21
51876;BME280;34054;52.100;5.116;2022-09-02T00:48:42;101579.94;;;19.56;39.25
51876;BME280;34054;52.100;5.116;2022-09-02T00:49:20;101567.50;;;19.59;39.04
51876;BME280;34054;52.100;5.116;2022-09-02T00:49:57;101573.63;;;19.56;39.18
51876;BME280;34054;52.100;5.116;2022-09-02T00:50:33;101579.41;;;19.54;39.24
51876;BME280;34054;52.100;5.116;2022-09-02T00:51:07;101578.41;;;19.50;39.44
51876;BME280;34054;52.100;5.116;2022-09-02T00:51:43;101577.81;;;19.53;39.62
51876;BME280;34054;52.100;5.116;2022-09-02T00:52:20;101581.59;;;19.57;39.32
51876;BME280;34054;52.100;5.116;2022-09-02T00:52:58;101575.28;;;19.57;39.24
51876;BME280;34054;52.100;5.116;2022-09-02T00:53:34;101562.78;;;19.45;39.22
51876;BME280;34054;52.100;5.116;2022-09-02T00:54:09;101576.97;;;19.53;39.40
51876;BME280;34054;52.100;5.116;2022-09-02T00:54:46;101575.06;;;19.53;39.33
51876;BME280;34054;52.100;5.116;2022-09-02T00:55:23;101579.34;;;19.59;39.41
51876;BME280;34054;52.100;5.116;2022-09-02T00:55:59;101568.94;;;19.56;39.26
51876;BME280;34054;52.100;5.116;2022-09-02T00:56:33;101562.41;;;19.52;39.43
51876;BME280;34054;52.100;5.116;2022-09-02T00:57:12;101577.72;;;19.58;39.41
51876;BME280;34054;52.100;5.116;2022-09-02T00:57:52;101552.97;;;19.39;39.19
51876;BME280;34054;52.100;5.116;2022-09-02T00:58:32;101560.53;;;19.48;39.23
51876;BME280;34054;52.100;5.116;2022-09-02T00:59:07;101574.00;;;19.49;39.14
51876;BME280;34054;52.100;5.116;2022-09-02T00:59:49;101562.41;;;19.52;39.52
51876;BME280;34054;52.100;5.116;2022-09-02T01:00:28;101574.44;;;19.56;39.32
51876;BME280;34054;52.100;5.116;2022-09-02T01:01:01;101566.69;;;19.58;39.50
51876;BME280;34054;52.100;5.116;2022-09-02T01:01:34;101567.28;;;19.55;39.65
51876;BME280;34054;52.100;5.116;2022-09-02T01:02:05;101569.56;;;19.53;39.70
51876;BME280;34054;52.100;5.116;2022-09-02T01:02:39;101571.47;;;19.53;39.69
51876;BME280;34054;52.100;5.116;2022-09-02T01:03:15;101565.66;;;19.54;39.46
51876;BME280;34054;52.100;5.116;2022-09-02T01:03:49;101568.94;;;19.56;39.64
51876;BME280;34054;52.100;5.116;2022-09-02T01:04:21;101565.66;;;19.54;39.59
51876;BME280;34054;52.100;5.116;2022-09-02T01:04:54;101563.63;;;19.60;39.56
51876;BME280;34054;52.100;5.116;2022-09-02T01:05:28;101567.28;;;19.55;39.59
51876;BME280;34054;52.100;5.116;2022-09-02T01:06:04;101568.13;;;19.56;39.61
51876;BME280;34054;52.100;5.116;2022-09-02T01:06:38;101554.63;;;19.54;39.56
51876;BME280;34054;52.100;5.116;2022-09-02T01:07:11;101538.88;;;19.41;39.88
51876;BME280;34054;52.100;5.116;2022-09-02T01:07:43;101567.00;;;19.57;39.95
51876;BME280;34054;52.100;5.116;2022-09-02T01:08:17;101559.53;;;19.57;39.68
51876;BME280;34054;52.100;5.116;2022-09-02T01:08:54;101566.38;;;19.60;39.33
51876;BME280;34054;52.100;5.116;2022-09-02T01:09:32;101567.81;;;19.57;39.50
51876;BME280;34054;52.100;5.116;2022-09-02T01:10:06;101565.66;;;19.54;39.64
51876;BME280;34054;52.100;5.116;2022-09-02T01:10:39;101558.00;;;19.51;39.66
51876;BME280;34054;52.100;5.116;2022-09-02T01:11:13;101564.84;;;19.54;39.80
51876;BME280;34054;52.100;5.116;2022-09-02T01:11:48;101544.59;;;19.44;39.86
51876;BME280;34054;52.100;5.116;2022-09-02T01:12:23;101561.28;;;19.53;39.67
51876;BME280;34054;52.100;5.116;2022-09-02T01:12:59;101560.97;;;19.55;39.64
51876;BME280;34054;52.100;5.116;2022-09-02T01:13:37;101570.78;;;19.61;39.67
51876;BME280;34054;52.100;5.116;2022-09-02T01:14:10;101563.63;;;19.60;39.59
51876;BME280;34054;52.100;5.116;2022-09-02T01:14:43;101561.78;;;19.55;39.49
51876;BME280;34054;52.100;5.116;2022-09-02T01:15:15;101561.78;;;19.55;39.95
51876;BME280;34054;52.100;5.116;2022-09-02T01:15:51;101561.72;;;19.60;39.72
51876;BME280;34054;52.100;5.116;2022-09-02T01:16:26;101565.44;;;19.51;39.42
51876;BME280;34054;52.100;5.116;2022-09-02T01:17:02;101566.94;;;19.43;39.58
51876;BME280;34054;52.100;5.116;2022-09-02T01:17:35;101561.66;;;19.46;39.52
51876;BME280;34054;52.100;5.116;2022-09-02T01:18:14;101550.00;;;19.36;39.78
51876;BME280;34054;52.100;5.116;2022-09-02T01:18:50;101559.19;;;19.45;39.88
51876;BME280;34054;52.100;5.116;2022-09-02T01:19:26;101559.19;;;19.45;39.90
51876;BME280;34054;52.100;5.116;2022-09-02T01:20:06;101560.31;;;19.44;39.84
51876;BME280;34054;52.100;5.116;2022-09-02T01:20:42;101561.13;;;19.44;39.73
51876;BME280;34054;52.100;5.116;2022-09-02T01:21:13;101559.06;;;19.36;39.64
51876;BME280;34054;52.100;5.116;2022-09-02T01:21:48;101561.06;;;19.30;39.75
51876;BME280;34054;52.100;5.116;2022-09-02T01:22:22;101564.44;;;19.27;39.78
51876;BME280;34054;52.100;5.116;2022-09-02T01:22:55;101566.56;;;19.30;40.10
51876;BME280;34054;52.100;5.116;2022-09-02T01:23:29;101559.38;;;19.35;39.93
51876;BME280;34054;52.100;5.116;2022-09-02T01:24:02;101561.59;;;19.33;39.96
51876;BME280;34054;52.100;5.116;2022-09-02T01:24:35;101560.47;;;19.34;40.05
51876;BME280;34054;52.100;5.116;2022-09-02T01:25:10;101557.19;;;19.32;40.00
51876;BME280;34054;52.100;5.116;2022-09-02T01:25:46;101560.63;;;19.23;40.18
51876;BME280;34054;52.100;5.116;2022-09-02T01:26:19;101565.69;;;19.16;40.42
51876;BME280;34054;52.100;5.116;2022-09-02T01:26:52;101563.16;;;19.20;40.39
51876;BME280;34054;52.100;5.116;2022-09-02T01:27:25;101563.38;;;19.23;40.60
51876;BME280;34054;52.100;5.116;2022-09-02T01:28:00;101555.66;;;19.06;40.45
51876;BME280;34054;52.100;5.116;2022-09-02T01:28:33;101561.38;;;19.10;40.47
51876;BME280;34054;52.100;5.116;2022-09-02T01:29:05;101563.31;;;19.09;40.50
51876;BME280;34054;52.100;5.116;2022-09-02T01:29:38;101556.69;;;19.10;40.33
51876;BME280;34054;52.100;5.116;2022-09-02T01:30:12;101561.88;;;19.12;40.46
51876;BME280;34054;52.100;5.116;2022-09-02T01:30:48;101532.13;;;18.95;40.31
51876;BME280;34054;52.100;5.116;2022-09-02T01:31:23;101564.19;;;19.05;40.46
51876;BME280;34054;52.100;5.116;2022-09-02T01:31:55;101556.53;;;19.02;40.77
51876;BME280;34054;52.100;5.116;2022-09-02T01:32:29;101560.03;;;19.07;40.72
51876;BME280;34054;52.100;5.116;2022-09-02T01:33:02;101554.81;;;19.06;40.80
51876;BME280;34054;52.100;5.116;2022-09-02T01:33:34;101555.56;;;19.11;40.71
51876;BME280;34054;52.100;5.116;2022-09-02T01:34:05;101523.63;;;18.91;40.62
51876;BME280;34054;52.100;5.116;2022-09-02T01:34:38;101505.91;;;18.78;40.49
51876;BME280;34054;52.100;5.116;2022-09-02T01:35:10;101482.47;;;18.62;40.36
51876;BME280;34054;52.100;5.116;2022-09-02T01:35:42;101529.69;;;18.93;40.54
51876;BME280;34054;52.100;5.116;2022-09-02T01:36:16;101553.72;;;19.07;40.65
51876;BME280;34054;52.100;5.116;2022-09-02T01:36:49;101554.00;;;19.05;40.80
51876;BME280;34054;52.100;5.116;2022-09-02T01:37:21;101529.41;;;18.90;40.89
51876;BME280;34054;52.100;5.116;2022-09-02T01:37:55;101552.59;;;19.08;40.92
51876;BME280;34054;52.100;5.116;2022-09-02T01:38:30;101535.63;;;19.01;40.68
51876;BME280;34054;52.100;5.116;2022-09-02T01:39:02;101529.69;;;18.93;40.69
51876;BME280;34054;52.100;5.116;2022-09-02T01:39:34;101531.03;;;18.96;41.05
51876;BME280;34054;52.100;5.116;2022-09-02T01:40:09;101550.66;;;19.08;41.05
51876;BME280;34054;52.100;5.116;2022-09-02T01:40:44;101546.03;;;19.04;41.09
51876;BME280;34054;52.100;5.116;2022-09-02T01:41:16;101543.00;;;19.05;40.76
51876;BME280;34054;52.100;5.116;2022-09-02T01:41:48;101547.63;;;19.10;40.96
51876;BME280;34054;52.100;5.116;2022-09-02T01:42:20;101536.13;;;19.03;40.61
51876;BME280;34054;52.100;5.116;2022-09-02T01:42:54;101531.47;;;19.03;40.81
51876;BME280;34054;52.100;5.116;2022-09-02T01:43:29;101527.16;;;18.97;40.80
51876;BME280;34054;52.100;5.116;2022-09-02T01:44:01;101546.56;;;19.06;40.86
51876;BME280;34054;52.100;5.116;2022-09-02T01:44:35;101543.22;;;19.09;40.86
51876;BME280;34054;52.100;5.116;2022-09-02T01:45:09;101534.22;;;19.03;40.53
51876;BME280;34054;52.100;5.116;2022-09-02T01:45:43;101541.91;;;19.06;40.76
51876;BME280;34054;52.100;5.116;2022-09-02T01:46:18;101530.50;;;18.94;41.08
51876;BME280;34054;52.100;5.116;2022-09-02T01:46:50;101543.00;;;19.05;40.89
51876;BME280;34054;52.100;5.116;2022-09-02T01:47:24;101546.25;;;19.07;40.89
51876;BME280;34054;52.100;5.116;2022-09-02T01:47:57;101540.25;;;19.05;40.30
51876;BME280;34054;52.100;5.116;2022-09-02T01:48:29;101544.78;;;18.96;40.57
51876;BME280;34054;52.100;5.116;2022-09-02T01:49:01;101550.88;;;18.93;41.13
51876;BME280;34054;52.100;5.116;2022-09-02T01:49:33;101550.28;;;18.96;40.84
51876;BME280;34054;52.100;5.116;2022-09-02T01:50:05;101544.78;;;18.96;40.71
51876;BME280;34054;52.100;5.116;2022-09-02T01:50:40;101538.03;;;18.83;40.94
51876;BME280;34054;52.100;5.116;2022-09-02T01:51:16;101547.06;;;18.89;41.08
51876;BME280;34054;52.100;5.116;2022-09-02T01:51:54;101540.41;;;18.90;40.98
51876;BME280;34054;52.100;5.116;2022-09-02T01:52:27;101537.22;;;18.82;41.01
51876;BME280;34054;52.100;5.116;2022-09-02T01:53:00;101540.19;;;18.86;40.99
51876;BME280;34054;52.100;5.116;2022-09-02T01:53:34;101536.72;;;18.80;41.26
51876;BME280;34054;52.100;5.116;2022-09-02T01:54:05;101540.13;;;18.91;41.06
51876;BME280;34054;52.100;5.116;2022-09-02T01:54:38;101536.53;;;18.91;41.01
51876;BME280;34054;52.100;5.116;2022-09-02T01:55:10;101537.97;;;18.88;40.96
51876;BME280;34054;52.100;5.116;2022-09-02T01:55:42;101508.50;;;18.70;41.14
51876;BME280;34054;52.100;5.116;2022-09-02T01:56:15;101532.53;;;18.83;40.94
51876;BME280;34054;52.100;5.116;2022-09-02T01:56:46;101534.00;;;18.75;41.11
51876;BME280;34054;52.100;5.116;2022-09-02T01:57:18;101537.59;;;18.76;41.48
51876;BME280;34054;52.100;5.116;2022-09-02T01:57:54;101534.31;;;18.74;41.50
51876;BME280;34054;52.100;5.116;2022-09-02T01:58:26;101537.59;;;18.76;41.31
51876;BME280;34054;52.100;5.116;2022-09-02T01:58:57;101529.63;;;18.74;41.64
51876;BME280;34054;52.100;5.116;2022-09-02T01:59:30;101537.75;;;18.84;41.47
51876;BME280;34054;52.100;5.116;2022-09-02T02:00:04;101537.97;;;18.88;41.21
51876;BME280;34054;52.100;5.116;2022-09-02T02:00:40;101537.38;;;18.91;41.16
51876;BME280;34054;52.100;5.116;2022-09-02T02:01:12;101539.88;;;18.93;40.89
51876;BME280;34054;52.100;5.116;2022-09-02T02:01:44;101538.50;;;18.90;41.16
51876;BME280;34054;52.100;5.116;2022-09-02T02:02:16;101537.38;;;18.91;41.15
51876;BME280;34054;52.100;5.116;2022-09-02T02:02:50;101524.28;;;18.83;40.94
51876;BME280;34054;52.100;5.116;2022-09-02T02:03:21;101539.31;;;18.91;40.89
51876;BME280;34054;52.100;5.116;2022-09-02T02:03:54;101537.16;;;18.88;41.32
51876;BME280;34054;52.100;5.116;2022-09-02T02:04:27;101535.28;;;18.83;41.00
51876;BME280;34054;52.100;5.116;2022-09-02T02:04:59;101537.53;;;18.81;41.38
51876;BME280;34054;52.100;5.116;2022-09-02T02:05:30;101537.06;;;18.74;41.32
51876;BME280;34054;52.100;5.116;2022-09-02T02:06:07;101532.81;;;18.62;41.56
51876;BME280;34054;52.100;5.116;2022-09-02T02:06:42;101531.13;;;18.66;41.57
51876;BME280;34054;52.100;5.116;2022-09-02T02:07:18;101519.94;;;18.58;41.39
51876;BME280;34054;52.100;5.116;2022-09-02T02:07:51;101534.63;;;18.72;41.57
51876;BME280;34054;52.100;5.116;2022-09-02T02:08:24;101517.06;;;18.68;41.46
51876;BME280;34054;52.100;5.116;2022-09-02T02:08:56;101531.56;;;18.74;41.65
51876;BME280;34054;52.100;5.116;2022-09-02T02:09:27;101537.06;;;18.74;41.65
51876;BME280;34054;52.100;5.116;2022-09-02T02:10:00;101531.88;;;18.72;41.64
51876;BME280;34054;52.100;5.116;2022-09-02T02:10:31;101529.94;;;18.73;41.32
51876;BME280;34054;52.100;5.116;2022-09-02T02:11:04;101521.00;;;18.62;41.46
51876;BME280;34054;52.100;5.116;2022-09-02T02:11:38;101525.59;;;18.66;41.34
51876;BME280;34054;52.100;5.116;2022-09-02T02:12:09;101536.84;;;18.70;41.61
51876;BME280;34054;52.100;5.116;2022-09-02T02:12:41;101524.78;;;18.66;41.34
51876;BME280;34054;52.100;5.116;2022-09-02T02:13:13;101536.88;;;18.65;41.58
51876;BME280;34054;52.100;5.116;2022-09-02T02:13:46;101531.78;;;18.58;41.32
51876;BME280;34054;52.100;5.116;2022-09-02T02:14:18;101521.88;;;18.57;41.54
51876;BME280;34054;52.100;5.116;2022-09-02T02:14:50;101532.28;;;18.60;41.59
51876;BME280;34054;52.100;5.116;2022-09-02T02:15:23;101529.00;;;18.58;41.71
51876;BME280;34054;52.100;5.116;2022-09-02T02:15:55;101538.91;;;18.59;41.65
51876;BME280;34054;52.100;5.116;2022-09-02T02:16:26;101530.34;;;18.61;41.77
51876;BME280;34054;52.100;5.116;2022-09-02T02:16:59;101521.03;;;18.57;41.54
51876;BME280;34054;52.100;5.116;2022-09-02T02:17:31;101533.41;;;18.59;41.94
51876;BME280;34054;52.100;5.116;2022-09-02T02:18:03;101529.59;;;18.55;41.59
51876;BME280;34054;52.100;5.116;2022-09-02T02:18:35;101521.34;;;18.55;41.61
51876;BME280;34054;52.100;5.116;2022-09-02T02:19:07;101524.91;;;18.56;41.47
51876;BME280;34054;52.100;5.116;2022-09-02T02:19:39;101538.91;;;18.59;41.53
51876;BME280;34054;52.100;5.116;2022-09-02T02:20:13;101536.75;;;18.56;41.61
51876;BME280;34054;52.100;5.116;2022-09-02T02:20:46;101532.03;;;18.57;41.64
51876;BME280;34054;52.100;5.116;2022-09-02T02:21:17;101534.00;;;18.56;41.64
51876;BME280;34054;52.100;5.116;2022-09-02T02:21:50;101531.25;;;18.56;41.72
51876;BME280;34054;52.100;5.116;2022-09-02T02:22:23;101531.31;;;18.51;41.88
51876;BME280;34054;52.100;5.116;2022-09-02T02:22:55;101529.72;;;18.45;42.04
51876;BME280;34054;52.100;5.116;2022-09-02T02:23:27;101534.63;;;18.48;42.10
51876;BME280;34054;52.100;5.116;2022-09-02T02:23:59;101526.31;;;18.53;42.01
51876;BME280;34054;52.100;5.116;2022-09-02T02:24:31;101535.09;;;18.55;41.82
51876;BME280;34054;52.100;5.116;2022-09-02T02:25:03;101534.28;;;18.55;41.92
51876;BME280;34054;52.100;5.116;2022-09-02T02:25:37;101510.75;;;18.43;41.59
51876;BME280;34054;52.100;5.116;2022-09-02T02:26:09;101526.63;;;18.51;41.84
51876;BME280;34054;52.100;5.116;2022-09-02T02:26:40;101531.06;;;18.47;42.24
51876;BME280;34054;52.100;5.116;2022-09-02T02:27:13;101525.81;;;18.51;42.04
51876;BME280;34054;52.100;5.116;2022-09-02T02:27:44;101523.88;;;18.51;41.92
51876;BME280;34054;52.100;5.116;2022-09-02T02:28:16;101521.47;;;18.45;41.91
51876;BME280;34054;52.100;5.116;2022-09-02T02:28:48;101523.63;;;18.48;41.93
51876;BME280;34054;52.100;5.116;2022-09-02T02:29:21;101524.44;;;18.48;42.38
51876;BME280;34054;52.100;5.116;2022-09-02T02:29:53;101526.16;;;18.44;42.07
51876;BME280;34054;52.100;5.116;2022-09-02T02:30:25;101529.91;;;18.29;42.17
51876;BME280;34054;52.100;5.116;2022-09-02T02:30:57;101529.13;;;18.24;42.45
51876;BME280;34054;52.100;5.116;2022-09-02T02:31:30;101527.88;;;18.16;42.61
51876;BME280;34054;52.100;5.116;2022-09-02T02:32:02;101526.84;;;18.07;42.48
51876;BME280;34054;52.100;5.116;2022-09-02T02:32:35;101526.25;;;18.10;42.92
51876;BME280;34054;52.100;5.116;2022-09-02T02:33:07;101529.25;;;18.13;42.66
51876;BME280;34054;52.100;5.116;2022-09-02T02:33:39;101519.94;;;18.09;42.77
51876;BME280;34054;52.100;5.116;2022-09-02T02:34:12;101518.00;;;18.10;42.58
51876;BME280;34054;52.100;5.116;2022-09-02T02:34:43;101525.63;;;18.18;42.69
51876;BME280;34054;52.100;5.116;2022-09-02T02:35:16;101523.69;;;18.18;42.83
51876;BME280;34054;52.100;5.116;2022-09-02T02:35:50;101528.50;;;18.32;42.66
51876;BME280;34054;52.100;5.116;2022-09-02T02:36:22;101511.00;;;18.23;42.49
51876;BME280;34054;52.100;5.116;2022-09-02T02:36:54;101524.97;;;18.26;42.72
51876;BME280;34054;52.100;5.116;2022-09-02T02:37:27;101529.09;;;18.29;42.67
51876;BME280;34054;52.100;5.116;2022-09-02T02:37:59;101521.13;;;18.27;42.82
51876;BME280;34054;52.100;5.116;2022-09-02T02:38:31;101523.59;;;18.29;42.41
51876;BME280;34054;52.100;5.116;2022-09-02T02:39:06;101523.28;;;18.30;42.55
51876;BME280;34054;52.100;5.116;2022-09-02T02:39:40;101525.47;;;18.33;42.53
51876;BME280;34054;52.100;5.116;2022-09-02T02:40:12;101529.31;;;18.32;42.82
51876;BME280;34054;52.100;5.116;2022-09-02T02:40:45;101523.22;;;18.35;42.52
51876;BME280;34054;52.100;5.116;2022-09-02T02:41:16;101529.25;;;18.38;42.32
51876;BME280;34054;52.100;5.116;2022-09-02T02:41:48;101517.16;;;18.39;42.36
51876;BME280;34054;52.100;5.116;2022-09-02T02:42:19;101517.69;;;18.41;42.71
51876;BME280;34054;52.100;5.116;2022-09-02T02:42:52;101524.94;;;18.31;42.48
51876;BME280;34054;52.100;5.116;2022-09-02T02:43:24;101523.59;;;18.29;42.53
51876;BME280;34054;52.100;5.116;2022-09-02T02:43:56;101499.13;;;18.03;42.46
51876;BME280;34054;52.100;5.116;2022-09-02T02:44:28;101516.03;;;18.15;42.65
51876;BME280;34054;52.100;5.116;2022-09-02T02:45:02;101521.53;;;18.15;42.81
51876;BME280;34054;52.100;5.116;2022-09-02T02:45:40;101492.53;;;18.04;42.78
51876;BME280;34054;52.100;5.116;2022-09-02T02:46:13;101514.38;;;18.14;43.01
51876;BME280;34054;52.100;5.116;2022-09-02T02:46:45;101516.88;;;18.16;42.83
51876;BME280;34054;52.100;5.116;2022-09-02T02:47:16;101516.63;;;18.12;42.78
51876;BME280;34054;52.100;5.116;2022-09-02T02:47:49;101518.31;;;18.08;42.99
51876;BME280;34054;52.100;5.116;2022-09-02T02:48:22;101522.13;;;18.12;42.83
51876;BME280;34054;52.100;5.116;2022-09-02T02:48:53;101519.06;;;18.14;42.76
51876;BME280;34054;52.100;5.116;2022-09-02T02:49:25;101522.59;;;18.19;42.76
51876;BME280;34054;52.100;5.116;2022-09-02T02:49:58;101516.78;;;18.21;42.58
51876;BME280;34054;52.100;5.116;2022-09-02T02:50:29;101512.94;;;18.22;42.80
51876;BME280;34054;52.100;5.116;2022-09-02T02:51:02;101499.31;;;18.12;42.79
51876;BME280;34054;52.100;5.116;2022-09-02T02:51:35;101516.69;;;18.31;42.89
51876;BME280;34054;52.100;5.116;2022-09-02T02:52:08;101517.22;;;18.33;42.38
51876;BME280;34054;52.100;5.116;2022-09-02T02:52:41;101517.22;;;18.33;42.63
51876;BME280;34054;52.100;5.116;2022-09-02T02:53:14;101516.72;;;18.26;42.47
51876;BME280;34054;52.100;5.116;2022-09-02T02:53:47;101511.59;;;18.19;42.76
51876;BME280;34054;52.100;5.116;2022-09-02T02:54:19;101479.94;;;17.98;42.72